sensor_id;sensor_type;location;lat;lon;timestamp;pressure;altitude;pressure_sealevel;temperature;humidity
38780;BME280;29273;49.962;9.768;2023-04-20T00:01:53;99950.00;;;10.58;45.96
38780;BME280;29273;49.962;9.768;2023-04-20T00:04:18;99937.56;;;10.58;46.12
38780;BME280;29273;49.962;9.768;2023-04-20T00:06:44;99938.38;;;10.59;46.41
38780;BME280;29273;49.962;9.768;2023-04-20T00:09:12;99935.53;;;10.60;46.45
38780;BME280;29273;49.962;9.768;2023-04-20T00:11:38;99935.13;;;10.57;46.30
38780;BME280;29273;49.962;9.768;2023-04-20T00:14:03;99930.00;;;10.55;46.26
38780;BME280;29273;49.962;9.768;2023-04-20T00:16:29;99930.41;;;10.52;46.50
38780;BME280;29273;49.962;9.768;2023-04-20T00:18:55;99926.34;;;10.49;46.60
38780;BME280;29273;49.962;9.768;2023-04-20T00:21:20;99919.59;;;10.47;46.55
38780;BME280;29273;49.962;9.768;2023-04-20T00:23:49;99915.28;;;10.46;46.50
38780;BME280;29273;49.962;9.768;2023-04-20T00:26:14;99907.78;;;10.43;46.87
38780;BME280;29273;49.962;9.768;2023-04-20T00:28:41;99907.13;;;10.41;46.73
38780;BME280;29273;49.962;9.768;2023-04-20T00:31:07;99901.22;;;10.39;46.93
38780;BME280;29273;49.962;9.768;2023-04-20T00:33:32;99903.06;;;10.38;46.91
38780;BME280;29273;49.962;9.768;2023-04-20T00:35:58;99903.47;;;10.35;46.93
38780;BME280;29273;49.962;9.768;2023-04-20T00:38:25;99897.16;;;10.36;47.24
38780;BME280;29273;49.962;9.768;2023-04-20T00:40:53;99899.16;;;10.34;47.38
38780;BME280;29273;49.962;9.768;2023-04-20T00:43:20;99889.63;;;10.33;47.41
38780;BME280;29273;49.962;9.768;2023-04-20T00:45:49;99887.53;;;10.28;47.07
38780;BME280;29273;49.962;9.768;2023-04-20T00:48:18;99893.81;;;10.27;46.89
38780;BME280;29273;49.962;9.768;2023-04-20T00:50:45;99887.91;;;10.25;47.04
38780;BME280;29273;49.962;9.768;2023-04-20T00:53:11;99885.66;;;10.22;46.89
38780;BME280;29273;49.962;9.768;2023-04-20T00:55:37;99879.94;;;10.18;47.19
38780;BME280;29273;49.962;9.768;2023-04-20T00:58:04;99873.22;;;10.16;47.37
38780;BME280;29273;49.962;9.768;2023-04-20T01:00:32;99874.22;;;10.15;47.56
38780;BME280;29273;49.962;9.768;2023-04-20T01:02:57;99866.50;;;10.13;47.84
38780;BME280;29273;49.962;9.768;2023-04-20T01:05:23;99868.13;;;10.14;47.87
38780;BME280;29273;49.962;9.768;2023-04-20T01:07:49;99865.50;;;10.14;48.02
38780;BME280;29273;49.962;9.768;2023-04-20T01:10:14;99854.72;;;10.16;47.82
38780;BME280;29273;49.962;9.768;2023-04-20T01:12:40;99857.16;;;10.17;47.92
38780;BME280;29273;49.962;9.768;2023-04-20T01:15:06;99846.16;;;10.21;48.21
38780;BME280;29273;49.962;9.768;2023-04-20T01:17:33;99845.94;;;10.22;48.36
38780;BME280;29273;49.962;9.768;2023-04-20T01:20:01;99844.94;;;10.23;47.92
38780;BME280;29273;49.962;9.768;2023-04-20T01:22:27;99846.59;;;10.24;47.81
38780;BME280;29273;49.962;9.768;2023-04-20T01:24:52;99841.31;;;10.24;47.85
38780;BME280;29273;49.962;9.768;2023-04-20T01:27:18;99838.44;;;10.26;47.90
38780;BME280;29273;49.962;9.768;2023-04-20T01:29:45;99840.25;;;10.25;48.15
38780;BME280;29273;49.962;9.768;2023-04-20T01:32:11;99831.53;;;10.25;47.96
38780;BME280;29273;49.962;9.768;2023-04-20T01:34:37;99833.34;;;10.24;48.04
38780;BME280;29273;49.962;9.768;2023-04-20T01:37:03;99830.72;;;10.24;47.95
38780;BME280;29273;49.962;9.768;2023-04-20T01:39:37;99826.63;;;10.28;48.35
38780;BME280;29273;49.962;9.768;2023-04-20T01:42:03;99836.81;;;10.25;48.13
38780;BME280;29273;49.962;9.768;2023-04-20T01:44:29;99826.22;;;10.25;48.12
38780;BME280;29273;49.962;9.768;2023-04-20T01:46:55;99830.72;;;10.24;48.00
38780;BME280;29273;49.962;9.768;2023-04-20T01:49:20;99826.03;;;10.26;48.14
38780;BME280;29273;49.962;9.768;2023-04-20T01:51:46;99828.28;;;10.29;48.17
38780;BME280;29273;49.962;9.768;2023-04-20T01:54:11;99829.91;;;10.30;48.05
38780;BME280;29273;49.962;9.768;2023-04-20T01:56:37;99826.25;;;10.31;48.40
38780;BME280;29273;49.962;9.768;2023-04-20T01:59:02;99825.03;;;10.34;48.21
38780;BME280;29273;49.962;9.768;2023-04-20T02:01:28;99815.50;;;10.33;47.96
38780;BME280;29273;49.962;9.768;2023-04-20T02:03:53;99823.44;;;10.33;48.35
38780;BME280;29273;49.962;9.768;2023-04-20T02:06:19;99819.94;;;10.32;48.51
38780;BME280;29273;49.962;9.768;2023-04-20T02:08:45;99817.50;;;10.31;48.05
38780;BME280;29273;49.962;9.768;2023-04-20T02:11:10;99815.03;;;10.29;48.44
38780;BME280;29273;49.962;9.768;2023-04-20T02:13:36;99808.91;;;10.29;48.45
38780;BME280;29273;49.962;9.768;2023-04-20T02:16:02;99811.38;;;10.30;48.26
38780;BME280;29273;49.962;9.768;2023-04-20T02:18:27;99808.91;;;10.29;47.93
38780;BME280;29273;49.962;9.768;2023-04-20T02:20:54;99810.56;;;10.30;47.82
38780;BME280;29273;49.962;9.768;2023-04-20T02:23:19;99814.00;;;10.30;47.99
38780;BME280;29273;49.962;9.768;2023-04-20T02:25:45;99807.91;;;10.30;48.18
38780;BME280;29273;49.962;9.768;2023-04-20T02:28:11;99796.31;;;10.31;48.20
38780;BME280;29273;49.962;9.768;2023-04-20T02:30:37;99796.97;;;10.33;48.16
38780;BME280;29273;49.962;9.768;2023-04-20T02:33:02;99796.97;;;10.33;48.11
38780;BME280;29273;49.962;9.768;2023-04-20T02:35:28;99795.94;;;10.34;48.13
38780;BME280;29273;49.962;9.768;2023-04-20T02:37:53;99789.44;;;10.36;48.26
38780;BME280;29273;49.962;9.768;2023-04-20T02:40:19;99785.78;;;10.38;48.09
38780;BME280;29273;49.962;9.768;2023-04-20T02:42:44;99786.38;;;10.40;48.46
38780;BME280;29273;49.962;9.768;2023-04-20T02:45:10;99781.09;;;10.40;48.11
38780;BME280;29273;49.962;9.768;2023-04-20T02:47:37;99780.88;;;10.41;48.17
38780;BME280;29273;49.962;9.768;2023-04-20T02:50:03;99776.59;;;10.40;48.42
38780;BME280;29273;49.962;9.768;2023-04-20T02:52:33;99769.66;;;10.39;48.68
38780;BME280;29273;49.962;9.768;2023-04-20T02:55:00;99766.22;;;10.39;48.67
38780;BME280;29273;49.962;9.768;2023-04-20T02:57:26;99768.84;;;10.39;48.69
38780;BME280;29273;49.962;9.768;2023-04-20T02:59:54;99770.69;;;10.38;48.87
38780;BME280;29273;49.962;9.768;2023-04-20T03:02:24;99767.25;;;10.38;48.87
38780;BME280;29273;49.962;9.768;2023-04-20T03:04:50;99762.75;;;10.38;48.83
38780;BME280;29273;49.962;9.768;2023-04-20T03:07:18;99767.03;;;10.39;48.74
38780;BME280;29273;49.962;9.768;2023-04-20T03:09:46;99764.38;;;10.39;49.25
38780;BME280;29273;49.962;9.768;2023-04-20T03:12:29;99758.28;;;10.39;49.45
38780;BME280;29273;49.962;9.768;2023-04-20T03:14:56;99756.22;;;10.41;49.51
38780;BME280;29273;49.962;9.768;2023-04-20T03:17:33;99759.91;;;10.40;49.33
38780;BME280;29273;49.962;9.768;2023-04-20T03:19:58;99756.44;;;10.39;49.25
38780;BME280;29273;49.962;9.768;2023-04-20T03:22:24;99753.78;;;10.39;49.45
38780;BME280;29273;49.962;9.768;2023-04-20T03:24:53;99751.13;;;10.39;49.13
38780;BME280;29273;49.962;9.768;2023-04-20T03:27:35;99754.81;;;10.38;49.21
38780;BME280;29273;49.962;9.768;2023-04-20T03:30:07;99761.66;;;10.26;50.35
38780;BME280;29273;49.962;9.768;2023-04-20T03:32:34;99752.97;;;10.39;49.50
38780;BME280;29273;49.962;9.768;2023-04-20T03:34:59;99757.25;;;10.40;49.41
38780;BME280;29273;49.962;9.768;2023-04-20T03:37:25;99756.44;;;10.39;49.86
38780;BME280;29273;49.962;9.768;2023-04-20T03:39:50;99747.47;;;10.40;49.92
38780;BME280;29273;49.962;9.768;2023-04-20T03:42:16;99748.50;;;10.39;49.29
38780;BME280;29273;49.962;9.768;2023-04-20T03:44:41;99752.16;;;10.38;49.48
38780;BME280;29273;49.962;9.768;2023-04-20T03:47:08;99747.69;;;10.39;49.62
38780;BME280;29273;49.962;9.768;2023-04-20T03:49:34;99740.53;;;10.39;49.90
38780;BME280;29273;49.962;9.768;2023-04-20T03:52:00;99732.84;;;10.38;49.86
38780;BME280;29273;49.962;9.768;2023-04-20T03:54:25;99733.03;;;10.36;49.69
38780;BME280;29273;49.962;9.768;2023-04-20T03:56:51;99733.22;;;10.34;49.47
38780;BME280;29273;49.962;9.768;2023-04-20T03:59:17;99739.53;;;10.33;49.75
38780;BME280;29273;49.962;9.768;2023-04-20T04:01:45;99730.16;;;10.31;49.60
38780;BME280;29273;49.962;9.768;2023-04-20T04:04:11;99737.25;;;10.30;49.44
38780;BME280;29273;49.962;9.768;2023-04-20T04:06:37;99732.16;;;10.29;49.46
38780;BME280;29273;49.962;9.768;2023-04-20T04:09:02;99725.25;;;10.28;49.33
38780;BME280;29273;49.962;9.768;2023-04-20T04:11:28;99728.69;;;10.28;49.35
38780;BME280;29273;49.962;9.768;2023-04-20T04:13:56;99735.44;;;10.31;49.25
38780;BME280;29273;49.962;9.768;2023-04-20T04:16:22;99732.56;;;10.26;49.54
38780;BME280;29273;49.962;9.768;2023-04-20T04:18:49;99736.25;;;10.25;49.34
38780;BME280;29273;49.962;9.768;2023-04-20T04:21:14;99728.50;;;10.23;49.30
38780;BME280;29273;49.962;9.768;2023-04-20T04:23:44;99732.97;;;10.23;49.53
38780;BME280;29273;49.962;9.768;2023-04-20T04:26:15;99733.19;;;10.21;49.57
38780;BME280;29273;49.962;9.768;2023-04-20T04:28:43;99740.28;;;10.21;49.42
38780;BME280;29273;49.962;9.768;2023-04-20T04:31:14;99737.22;;;10.17;49.34
38780;BME280;29273;49.962;9.768;2023-04-20T04:33:41;99735.41;;;10.17;49.31
38780;BME280;29273;49.962;9.768;2023-04-20T04:36:09;99747.63;;;10.18;49.89
38780;BME280;29273;49.962;9.768;2023-04-20T04:38:34;99739.88;;;10.17;49.69
38780;BME280;29273;49.962;9.768;2023-04-20T04:41:00;99744.97;;;10.18;49.47
38780;BME280;29273;49.962;9.768;2023-04-20T04:43:28;99742.31;;;10.18;49.52
38780;BME280;29273;49.962;9.768;2023-04-20T04:46:08;99738.69;;;10.26;50.12
38780;BME280;29273;49.962;9.768;2023-04-20T04:48:36;99735.63;;;10.23;49.81
38780;BME280;29273;49.962;9.768;2023-04-20T04:51:03;99733.78;;;10.23;49.33
38780;BME280;29273;49.962;9.768;2023-04-20T04:53:29;99738.28;;;10.23;49.63
38780;BME280;29273;49.962;9.768;2023-04-20T04:55:54;99735.44;;;10.24;49.78
38780;BME280;29273;49.962;9.768;2023-04-20T04:58:20;99736.25;;;10.25;49.55
38780;BME280;29273;49.962;9.768;2023-04-20T05:00:45;99737.84;;;10.26;49.63
38780;BME280;29273;49.962;9.768;2023-04-20T05:03:11;99735.19;;;10.26;49.79
38780;BME280;29273;49.962;9.768;2023-04-20T05:05:37;99738.88;;;10.25;49.88
38780;BME280;29273;49.962;9.768;2023-04-20T05:08:02;99744.97;;;10.25;49.67
38780;BME280;29273;49.962;9.768;2023-04-20T05:10:28;99737.84;;;10.26;49.54
38780;BME280;29273;49.962;9.768;2023-04-20T05:12:53;99739.69;;;10.25;49.71
38780;BME280;29273;49.962;9.768;2023-04-20T05:15:19;99732.78;;;10.24;49.80
38780;BME280;29273;49.962;9.768;2023-04-20T05:17:44;99738.06;;;10.24;49.71
38780;BME280;29273;49.962;9.768;2023-04-20T05:20:10;99726.66;;;10.24;49.37
38780;BME280;29273;49.962;9.768;2023-04-20T05:22:36;99726.84;;;10.22;49.53
38780;BME280;29273;49.962;9.768;2023-04-20T05:25:03;99731.34;;;10.22;49.75
38780;BME280;29273;49.962;9.768;2023-04-20T05:27:29;99735.63;;;10.16;49.72
38780;BME280;29273;49.962;9.768;2023-04-20T05:29:55;99741.31;;;10.13;49.60
38780;BME280;29273;49.962;9.768;2023-04-20T05:32:20;99737.41;;;10.09;49.95
38780;BME280;29273;49.962;9.768;2023-04-20T05:34:45;99744.75;;;10.07;50.05
38780;BME280;29273;49.962;9.768;2023-04-20T05:37:11;99741.50;;;10.05;49.88
38780;BME280;29273;49.962;9.768;2023-04-20T05:39:37;99752.06;;;10.05;50.39
38780;BME280;29273;49.962;9.768;2023-04-20T05:42:03;99761.63;;;10.06;50.50
38780;BME280;29273;49.962;9.768;2023-04-20T05:44:28;99762.84;;;10.03;50.27
38780;BME280;29273;49.962;9.768;2023-04-20T05:46:53;99768.16;;;10.03;50.41
38780;BME280;29273;49.962;9.768;2023-04-20T05:49:19;99768.34;;;10.02;50.55
38780;BME280;29273;49.962;9.768;2023-04-20T05:51:44;99771.78;;;10.02;50.54
38780;BME280;29273;49.962;9.768;2023-04-20T05:54:10;99771.00;;;10.02;50.53
38780;BME280;29273;49.962;9.768;2023-04-20T05:56:36;99774.44;;;10.02;50.61
38780;BME280;29273;49.962;9.768;2023-04-20T05:59:01;99777.28;;;10.00;50.73
38780;BME280;29273;49.962;9.768;2023-04-20T06:01:27;99783.22;;;10.03;50.83
38780;BME280;29273;49.962;9.768;2023-04-20T06:03:52;99768.94;;;10.04;51.03
38780;BME280;29273;49.962;9.768;2023-04-20T06:06:18;99780.78;;;10.08;51.08
38780;BME280;29273;49.962;9.768;2023-04-20T06:08:43;99771.63;;;10.10;51.45
38780;BME280;29273;49.962;9.768;2023-04-20T06:11:09;99769.38;;;10.14;50.98
38780;BME280;29273;49.962;9.768;2023-04-20T06:13:34;99778.19;;;10.21;51.04
38780;BME280;29273;49.962;9.768;2023-04-20T06:16:00;99774.09;;;10.25;51.21
38780;BME280;29273;49.962;9.768;2023-04-20T06:18:25;99775.16;;;10.31;51.31
38780;BME280;29273;49.962;9.768;2023-04-20T06:20:51;99782.91;;;10.39;51.09
38780;BME280;29273;49.962;9.768;2023-04-20T06:23:16;99774.97;;;10.46;51.24
38780;BME280;29273;49.962;9.768;2023-04-20T06:25:42;99771.31;;;10.53;50.98
38780;BME280;29273;49.962;9.768;2023-04-20T06:28:08;99765.03;;;10.61;51.04
38780;BME280;29273;49.962;9.768;2023-04-20T06:30:33;99766.84;;;10.67;50.97
38780;BME280;29273;49.962;9.768;2023-04-20T06:33:00;99771.75;;;10.77;51.00
38780;BME280;29273;49.962;9.768;2023-04-20T06:35:26;99765.84;;;10.82;50.59
38780;BME280;29273;49.962;9.768;2023-04-20T06:37:51;99768.28;;;10.90;50.92
38780;BME280;29273;49.962;9.768;2023-04-20T06:40:17;99767.69;;;10.95;50.75
38780;BME280;29273;49.962;9.768;2023-04-20T06:42:43;99766.22;;;10.99;50.40
38780;BME280;29273;49.962;9.768;2023-04-20T06:45:09;99757.28;;;11.06;50.42
38780;BME280;29273;49.962;9.768;2023-04-20T06:47:35;99758.47;;;11.10;50.47
38780;BME280;29273;49.962;9.768;2023-04-20T06:50:03;99766.84;;;11.21;50.92
38780;BME280;29273;49.962;9.768;2023-04-20T06:52:31;99763.53;;;11.25;50.59
38780;BME280;29273;49.962;9.768;2023-04-20T06:54:58;99764.38;;;11.33;50.61
38780;BME280;29273;49.962;9.768;2023-04-20T06:57:24;99757.19;;;11.40;50.10
38780;BME280;29273;49.962;9.768;2023-04-20T06:59:49;99760.84;;;11.45;49.99
38780;BME280;29273;49.962;9.768;2023-04-20T07:02:15;99763.69;;;11.51;49.53
38780;BME280;29273;49.962;9.768;2023-04-20T07:04:40;99758.81;;;11.54;49.47
38780;BME280;29273;49.962;9.768;2023-04-20T07:07:05;99760.41;;;11.55;48.82
38780;BME280;29273;49.962;9.768;2023-04-20T07:09:31;99765.31;;;11.58;49.26
38780;BME280;29273;49.962;9.768;2023-04-20T07:11:56;99761.00;;;11.64;50.03
38780;BME280;29273;49.962;9.768;2023-04-20T07:14:22;99756.53;;;11.64;49.06
38780;BME280;29273;49.962;9.768;2023-04-20T07:16:51;99756.28;;;11.73;50.10
38780;BME280;29273;49.962;9.768;2023-04-20T07:19:17;99761.81;;;11.71;48.80
38780;BME280;29273;49.962;9.768;2023-04-20T07:21:42;99756.06;;;11.74;48.88
38780;BME280;29273;49.962;9.768;2023-04-20T07:24:08;99754.81;;;11.77;48.85
38780;BME280;29273;49.962;9.768;2023-04-20T07:26:33;99754.81;;;11.77;48.06
38780;BME280;29273;49.962;9.768;2023-04-20T07:28:59;99751.56;;;11.81;48.59
38780;BME280;29273;49.962;9.768;2023-04-20T07:31:24;99754.00;;;11.83;48.55
38780;BME280;29273;49.962;9.768;2023-04-20T07:33:50;99747.69;;;11.84;48.23
38780;BME280;29273;49.962;9.768;2023-04-20T07:36:15;99748.28;;;11.86;48.36
38780;BME280;29273;49.962;9.768;2023-04-20T07:38:40;99747.00;;;11.89;48.36
38780;BME280;29273;49.962;9.768;2023-04-20T07:41:09;99746.22;;;11.95;49.29
38780;BME280;29273;49.962;9.768;2023-04-20T07:43:35;99750.91;;;11.93;48.10
38780;BME280;29273;49.962;9.768;2023-04-20T07:46:01;99753.38;;;11.94;47.79
38780;BME280;29273;49.962;9.768;2023-04-20T07:48:26;99751.53;;;11.95;48.32
38780;BME280;29273;49.962;9.768;2023-04-20T07:50:52;99752.31;;;11.95;48.00
38780;BME280;29273;49.962;9.768;2023-04-20T07:53:17;99754.16;;;11.95;47.68
38780;BME280;29273;49.962;9.768;2023-04-20T07:55:43;99743.94;;;11.98;47.82
38780;BME280;29273;49.962;9.768;2023-04-20T07:58:08;99746.38;;;12.00;48.29
38780;BME280;29273;49.962;9.768;2023-04-20T08:00:34;99755.56;;;12.04;49.11
38780;BME280;29273;49.962;9.768;2023-04-20T08:02:59;99748.78;;;12.08;48.45
38780;BME280;29273;49.962;9.768;2023-04-20T08:05:25;99741.41;;;12.10;47.67
38780;BME280;29273;49.962;9.768;2023-04-20T08:07:51;99735.06;;;12.18;48.08
38780;BME280;29273;49.962;9.768;2023-04-20T08:10:17;99728.28;;;12.22;47.56
38780;BME280;29273;49.962;9.768;2023-04-20T08:12:42;99738.47;;;12.25;47.65
38780;BME280;29273;49.962;9.768;2023-04-20T08:15:08;99729.28;;;12.28;47.61
38780;BME280;29273;49.962;9.768;2023-04-20T08:17:34;99717.63;;;12.29;47.30
38780;BME280;29273;49.962;9.768;2023-04-20T08:20:00;99722.34;;;12.27;46.61
38780;BME280;29273;49.962;9.768;2023-04-20T08:22:25;99723.97;;;12.28;47.04
38780;BME280;29273;49.962;9.768;2023-04-20T08:24:55;99723.53;;;12.31;47.77
38780;BME280;29273;49.962;9.768;2023-04-20T08:27:21;99719.25;;;12.30;47.59
38780;BME280;29273;49.962;9.768;2023-04-20T08:29:46;99719.03;;;12.31;47.98
38780;BME280;29273;49.962;9.768;2023-04-20T08:32:12;99713.50;;;12.33;47.35
38780;BME280;29273;49.962;9.768;2023-04-20T08:34:38;99718.63;;;12.34;46.78
38780;BME280;29273;49.962;9.768;2023-04-20T08:37:04;99715.53;;;12.37;46.94
38780;BME280;29273;49.962;9.768;2023-04-20T08:39:30;99716.13;;;12.39;46.84
38780;BME280;29273;49.962;9.768;2023-04-20T08:41:56;99715.06;;;12.40;46.79
38780;BME280;29273;49.962;9.768;2023-04-20T08:44:23;99705.88;;;12.43;47.38
38780;BME280;29273;49.962;9.768;2023-04-20T08:46:49;99706.47;;;12.45;47.40
38780;BME280;29273;49.962;9.768;2023-04-20T08:49:16;99702.56;;;12.48;47.30
38780;BME280;29273;49.962;9.768;2023-04-20T08:51:44;99710.72;;;12.53;47.04
38780;BME280;29273;49.962;9.768;2023-04-20T08:54:10;99703.31;;;12.55;47.26
38780;BME280;29273;49.962;9.768;2023-04-20T08:56:38;99699.81;;;12.61;48.10
38780;BME280;29273;49.962;9.768;2023-04-20T08:59:05;99703.88;;;12.64;47.04
38780;BME280;29273;49.962;9.768;2023-04-20T09:01:34;99703.59;;;12.72;47.10
38780;BME280;29273;49.962;9.768;2023-04-20T09:04:00;99705.53;;;12.83;48.44
38780;BME280;29273;49.962;9.768;2023-04-20T09:06:26;99710.00;;;12.89;48.00
38780;BME280;29273;49.962;9.768;2023-04-20T09:08:53;99704.16;;;12.99;48.02
38780;BME280;29273;49.962;9.768;2023-04-20T09:11:37;99698.56;;;13.07;47.79
38780;BME280;29273;49.962;9.768;2023-04-20T09:14:08;99710.31;;;13.18;47.62
38780;BME280;29273;49.962;9.768;2023-04-20T09:16:57;99712.47;;;13.28;49.61
38780;BME280;29273;49.962;9.768;2023-04-20T09:19:28;99705.00;;;13.37;48.26
38780;BME280;29273;49.962;9.768;2023-04-20T09:21:56;99703.06;;;13.44;46.22
38780;BME280;29273;49.962;9.768;2023-04-20T09:24:29;99705.34;;;13.59;47.99
38780;BME280;29273;49.962;9.768;2023-04-20T09:26:55;99698.44;;;13.58;44.84
38780;BME280;29273;49.962;9.768;2023-04-20T09:29:22;99709.94;;;13.70;45.91
38780;BME280;29273;49.962;9.768;2023-04-20T09:31:50;99704.97;;;13.74;45.36
38780;BME280;29273;49.962;9.768;2023-04-20T09:34:16;99701.41;;;13.80;45.30
38780;BME280;29273;49.962;9.768;2023-04-20T09:36:47;99701.47;;;13.92;45.96
38780;BME280;29273;49.962;9.768;2023-04-20T09:39:19;99699.97;;;13.96;46.92
38780;BME280;29273;49.962;9.768;2023-04-20T09:41:46;99700.44;;;13.93;44.31
38780;BME280;29273;49.962;9.768;2023-04-20T09:44:12;99693.25;;;13.93;44.32
38780;BME280;29273;49.962;9.768;2023-04-20T09:46:39;99684.81;;;13.96;45.36
38780;BME280;29273;49.962;9.768;2023-04-20T09:49:07;99677.84;;;13.95;45.30
38780;BME280;29273;49.962;9.768;2023-04-20T09:51:34;99671.84;;;14.00;45.30
38780;BME280;29273;49.962;9.768;2023-04-20T09:54:02;99675.53;;;13.99;44.21
38780;BME280;29273;49.962;9.768;2023-04-20T09:56:28;99670.22;;;13.99;44.38
38780;BME280;29273;49.962;9.768;2023-04-20T09:58:55;99665.84;;;14.04;44.61
38780;BME280;29273;49.962;9.768;2023-04-20T10:01:22;99670.38;;;14.04;43.62
38780;BME280;29273;49.962;9.768;2023-04-20T10:03:48;99669.31;;;14.05;43.93
38780;BME280;29273;49.962;9.768;2023-04-20T10:06:22;99673.50;;;14.13;45.00
38780;BME280;29273;49.962;9.768;2023-04-20T10:08:48;99661.69;;;14.09;43.46
38780;BME280;29273;49.962;9.768;2023-04-20T10:11:38;99670.41;;;14.16;47.12
38780;BME280;29273;49.962;9.768;2023-04-20T10:14:21;99667.03;;;14.20;45.78
38780;BME280;29273;49.962;9.768;2023-04-20T10:17:06;99659.03;;;14.20;46.18
38780;BME280;29273;49.962;9.768;2023-04-20T10:19:37;99655.69;;;14.25;45.97
38780;BME280;29273;49.962;9.768;2023-04-20T10:22:04;99644.47;;;14.23;44.59
38780;BME280;29273;49.962;9.768;2023-04-20T10:24:30;99645.63;;;14.27;43.46
38780;BME280;29273;49.962;9.768;2023-04-20T10:26:56;99643.91;;;14.33;43.98
38780;BME280;29273;49.962;9.768;2023-04-20T10:29:26;99641.13;;;14.39;44.89
38780;BME280;29273;49.962;9.768;2023-04-20T10:31:53;99630.00;;;14.42;43.92
38780;BME280;29273;49.962;9.768;2023-04-20T10:34:32;99619.47;;;14.48;45.56
38780;BME280;29273;49.962;9.768;2023-04-20T10:37:16;99618.66;;;14.47;45.62
38780;BME280;29273;49.962;9.768;2023-04-20T10:39:47;99612.06;;;14.50;45.84
38780;BME280;29273;49.962;9.768;2023-04-20T10:42:13;99612.16;;;14.43;42.91
38780;BME280;29273;49.962;9.768;2023-04-20T10:44:48;99615.28;;;14.52;45.81
38780;BME280;29273;49.962;9.768;2023-04-20T10:47:14;99616.56;;;14.49;43.01
38780;BME280;29273;49.962;9.768;2023-04-20T10:49:39;99609.97;;;14.52;43.18
38780;BME280;29273;49.962;9.768;2023-04-20T10:52:05;99608.69;;;14.54;42.20
38780;BME280;29273;49.962;9.768;2023-04-20T10:54:37;99608.16;;;14.64;44.96
38780;BME280;29273;49.962;9.768;2023-04-20T10:57:04;99603.84;;;14.63;41.67
38780;BME280;29273;49.962;9.768;2023-04-20T10:59:30;99602.69;;;14.71;42.38
38780;BME280;29273;49.962;9.768;2023-04-20T11:01:55;99592.38;;;14.74;42.20
38780;BME280;29273;49.962;9.768;2023-04-20T11:04:33;99593.16;;;14.87;45.68
38780;BME280;29273;49.962;9.768;2023-04-20T11:07:07;99599.19;;;14.94;44.94
38780;BME280;29273;49.962;9.768;2023-04-20T11:09:33;99590.59;;;14.92;42.14
38780;BME280;29273;49.962;9.768;2023-04-20T11:12:09;99588.03;;;14.97;42.26
38780;BME280;29273;49.962;9.768;2023-04-20T11:14:51;99571.09;;;15.03;44.29
38780;BME280;29273;49.962;9.768;2023-04-20T11:17:17;99568.41;;;15.03;41.22
38780;BME280;29273;49.962;9.768;2023-04-20T11:19:43;99548.25;;;15.07;40.53
38780;BME280;29273;49.962;9.768;2023-04-20T11:22:19;99561.53;;;15.19;43.88
38780;BME280;29273;49.962;9.768;2023-04-20T11:24:45;99559.34;;;15.16;40.24
38780;BME280;29273;49.962;9.768;2023-04-20T11:27:18;99552.56;;;15.25;43.32
38780;BME280;29273;49.962;9.768;2023-04-20T11:29:55;99556.38;;;15.29;43.69
38780;BME280;29273;49.962;9.768;2023-04-20T11:32:20;99555.22;;;15.25;39.61
38780;BME280;29273;49.962;9.768;2023-04-20T11:34:57;99560.19;;;15.33;43.86
38780;BME280;29273;49.962;9.768;2023-04-20T11:37:23;99558.50;;;15.27;38.97
38780;BME280;29273;49.962;9.768;2023-04-20T11:39:58;99568.78;;;15.35;42.50
38780;BME280;29273;49.962;9.768;2023-04-20T11:42:24;99555.91;;;15.32;38.58
38780;BME280;29273;49.962;9.768;2023-04-20T11:44:49;99549.28;;;15.35;39.17
38780;BME280;29273;49.962;9.768;2023-04-20T11:47:15;99543.47;;;15.38;39.22
38780;BME280;29273;49.962;9.768;2023-04-20T11:49:40;99547.53;;;15.41;39.64
38780;BME280;29273;49.962;9.768;2023-04-20T11:52:08;99555.16;;;15.49;41.44
38780;BME280;29273;49.962;9.768;2023-04-20T11:54:34;99550.75;;;15.43;37.94
38780;BME280;29273;49.962;9.768;2023-04-20T11:57:00;99547.63;;;15.46;37.79
38780;BME280;29273;49.962;9.768;2023-04-20T11:59:26;99552.72;;;15.47;38.29
38780;BME280;29273;49.962;9.768;2023-04-20T12:01:52;99549.22;;;15.47;38.12
38780;BME280;29273;49.962;9.768;2023-04-20T12:04:17;99547.38;;;15.47;37.35
38780;BME280;29273;49.962;9.768;2023-04-20T12:06:43;99534.03;;;15.47;36.76
38780;BME280;29273;49.962;9.768;2023-04-20T12:09:09;99530.28;;;15.48;36.81
38780;BME280;29273;49.962;9.768;2023-04-20T12:11:34;99532.72;;;15.50;37.53
38780;BME280;29273;49.962;9.768;2023-04-20T12:14:00;99532.50;;;15.51;37.70
38780;BME280;29273;49.962;9.768;2023-04-20T12:16:25;99537.59;;;15.53;36.70
38780;BME280;29273;49.962;9.768;2023-04-20T12:18:51;99525.63;;;15.56;37.61
38780;BME280;29273;49.962;9.768;2023-04-20T12:21:16;99530.97;;;15.56;37.58
38780;BME280;29273;49.962;9.768;2023-04-20T12:23:42;99527.78;;;15.59;37.95
38780;BME280;29273;49.962;9.768;2023-04-20T12:26:08;99535.56;;;15.60;38.29
38780;BME280;29273;49.962;9.768;2023-04-20T12:28:34;99531.84;;;15.61;38.29
38780;BME280;29273;49.962;9.768;2023-04-20T12:30:59;99530.81;;;15.62;38.07
38780;BME280;29273;49.962;9.768;2023-04-20T12:33:25;99527.06;;;15.63;38.13
38780;BME280;29273;49.962;9.768;2023-04-20T12:35:50;99516.63;;;15.62;38.12
38780;BME280;29273;49.962;9.768;2023-04-20T12:38:16;99515.84;;;15.61;37.42
38780;BME280;29273;49.962;9.768;2023-04-20T12:40:42;99516.31;;;15.58;37.67
38780;BME280;29273;49.962;9.768;2023-04-20T12:43:07;99527.47;;;15.55;38.44
38780;BME280;29273;49.962;9.768;2023-04-20T12:45:33;99521.00;;;15.51;38.10
38780;BME280;29273;49.962;9.768;2023-04-20T12:47:58;99525.19;;;15.47;37.30
38780;BME280;29273;49.962;9.768;2023-04-20T12:50:24;99514.19;;;15.43;37.74
38780;BME280;29273;49.962;9.768;2023-04-20T12:52:50;99513.88;;;15.40;37.46
38780;BME280;29273;49.962;9.768;2023-04-20T12:55:21;99523.97;;;15.38;38.24
38780;BME280;29273;49.962;9.768;2023-04-20T12:57:46;99524.69;;;15.33;38.36
38780;BME280;29273;49.962;9.768;2023-04-20T13:00:12;99533.75;;;15.32;38.63